createdAt,value
2019-04-05T00:00:55.946Z,7.87
2019-04-05T00:03:25.670Z,7.73
2019-04-05T00:05:55.491Z,7.53
2019-04-05T00:08:25.336Z,8.23
2019-04-05T00:10:55.252Z,8.67
2019-04-05T00:13:25.150Z,8.43
2019-04-05T00:15:54.931Z,8.20
2019-04-05T00:18:24.819Z,8.40
2019-04-05T00:20:54.522Z,8.13
2019-04-05T00:23:24.313Z,8.27
2019-04-05T00:25:54.294Z,8.33
2019-04-05T00:28:24.008Z,8.50
2019-04-05T00:30:53.888Z,8.20
2019-04-05T00:33:23.704Z,8.50
2019-04-05T00:35:53.722Z,8.50
2019-04-05T00:38:23.520Z,8.50
2019-04-05T00:40:53.411Z,8.20
2019-04-05T00:43:23.133Z,9.00
2019-04-05T00:45:53.262Z,8.60
2019-04-05T00:48:23.139Z,8.63
2019-04-05T00:50:53.127Z,8.57
2019-04-05T00:53:22.939Z,8.60
2019-04-05T00:55:52.770Z,8.70
2019-04-05T00:58:22.646Z,9.07
2019-04-05T01:00:52.428Z,9.13
2019-04-05T01:03:22.363Z,9.73
2019-04-05T01:05:52.460Z,9.67
2019-04-05T01:08:22.304Z,9.43
2019-04-05T01:10:52.238Z,8.70
2019-04-05T01:13:22.415Z,9.00
2019-04-05T01:15:52.262Z,9.30
2019-04-05T01:18:22.248Z,9.57
2019-04-05T01:20:54.451Z,9.63
2019-04-05T01:23:25.384Z,9.67
2019-04-05T01:25:58.174Z,9.93
2019-04-05T01:28:28.023Z,9.97
2019-04-05T01:30:58.138Z,10.13
2019-04-05T01:33:28.281Z,10.17
2019-04-05T01:35:58.128Z,10.90
2019-04-05T01:38:27.927Z,9.97
2019-04-05T01:40:59.666Z,10.60
2019-04-05T01:43:29.714Z,11.00
2019-04-05T01:46:00.728Z,10.93
2019-04-05T01:48:30.722Z,10.67
2019-04-05T01:51:00.603Z,10.93
2019-04-05T01:53:30.752Z,10.97
2019-04-05T01:56:00.517Z,10.87
2019-04-05T01:58:30.336Z,11.23
2019-04-05T02:01:00.234Z,11.33
2019-04-05T02:03:30.253Z,10.97
2019-04-05T02:06:00.272Z,11.03
2019-04-05T02:08:30.606Z,11.23
2019-04-05T02:11:00.500Z,11.27
2019-04-05T02:13:30.450Z,11.60
2019-04-05T02:16:06.217Z,12.20
2019-04-05T02:18:31.865Z,12.40
2019-04-05T02:21:01.768Z,12.97
2019-04-05T02:23:31.774Z,12.07
2019-04-05T02:26:01.793Z,12.00
2019-04-05T02:28:31.557Z,13.27
2019-04-05T02:31:02.404Z,12.30
2019-04-05T02:33:32.215Z,12.63
2019-04-05T02:36:02.144Z,13.30
2019-04-05T02:38:31.963Z,12.80
2019-04-05T02:41:03.921Z,12.87
2019-04-05T02:43:36.944Z,12.53
2019-04-05T02:46:22.815Z,12.47
2019-04-05T02:48:44.323Z,12.70
2019-04-05T02:51:18.540Z,12.97
2019-04-05T02:53:49.567Z,15.43
2019-04-05T02:56:20.760Z,14.67
2019-04-05T02:58:51.860Z,14.63
2019-04-05T03:01:22.821Z,15.60
2019-04-05T03:03:52.912Z,15.27
2019-04-05T03:06:22.914Z,16.03
2019-04-05T03:08:54.533Z,14.70
2019-04-05T03:11:28.760Z,13.60
2019-04-05T03:14:03.081Z,14.67
2019-04-05T03:16:41.417Z,14.07
2019-04-05T03:19:13.589Z,15.03
2019-04-05T03:21:47.873Z,15.57
2019-04-05T03:24:22.515Z,14.13
2019-04-05T03:26:56.785Z,14.90
2019-04-05T03:29:27.466Z,14.13
2019-04-05T03:31:57.956Z,14.87
2019-04-05T03:34:28.112Z,14.50
2019-04-05T03:36:57.984Z,14.33
2019-04-05T03:39:28.774Z,15.47
2019-04-05T03:41:59.015Z,14.83
2019-04-05T03:44:28.962Z,14.30
2019-04-05T03:46:59.040Z,14.90
2019-04-05T03:49:29.612Z,14.60
2019-04-05T03:51:59.620Z,16.50
2019-04-05T03:54:30.262Z,14.80
2019-04-05T03:57:01.987Z,16.53
2019-04-05T03:59:31.878Z,16.10
2019-04-05T04:02:02.383Z,14.40
2019-04-05T04:04:32.566Z,16.23
2019-04-05T04:07:02.399Z,15.43
2019-04-05T04:09:32.629Z,16.37
2019-04-05T04:12:03.371Z,15.23
2019-04-05T04:14:33.272Z,14.73
2019-04-05T04:17:12.277Z,14.80
2019-04-05T04:19:34.996Z,14.77
2019-04-05T04:22:20.973Z,15.60
2019-04-05T04:24:51.128Z,14.97
2019-04-05T04:27:21.724Z,16.30
2019-04-05T04:29:52.584Z,16.47
2019-04-05T04:32:22.581Z,16.33
2019-04-05T04:34:52.601Z,16.00
2019-04-05T04:37:23.023Z,15.67
2019-04-05T04:39:52.975Z,14.90
2019-04-05T04:42:23.855Z,15.90
2019-04-05T04:44:54.714Z,17.13
2019-04-05T04:47:27.352Z,16.43
2019-04-05T04:49:59.180Z,16.07
2019-04-05T04:52:31.497Z,15.73
2019-04-05T04:55:01.645Z,15.07
2019-04-05T04:57:32.147Z,15.87
2019-04-05T05:00:02.170Z,15.83
2019-04-05T05:02:32.167Z,16.37
2019-04-05T05:05:02.824Z,17.93
2019-04-05T05:07:33.479Z,16.00
2019-04-05T05:10:03.968Z,16.80
2019-04-05T05:12:33.969Z,17.27
2019-04-05T05:15:05.671Z,17.17
2019-04-05T05:17:38.596Z,16.07
2019-04-05T05:20:09.371Z,16.07
2019-04-05T05:22:39.678Z,16.73
2019-04-05T05:25:09.937Z,15.93
2019-04-05T05:27:39.840Z,15.93
2019-04-05T05:30:11.484Z,15.93
2019-04-05T05:32:41.594Z,15.60
2019-04-05T05:35:11.709Z,16.93
2019-04-05T05:37:41.688Z,16.40
2019-04-05T05:40:12.065Z,17.00
2019-04-05T05:42:41.937Z,15.07
2019-04-05T05:45:12.243Z,15.87
2019-04-05T05:47:51.794Z,16.10
2019-04-05T05:50:14.161Z,15.33
2019-04-05T05:52:44.487Z,17.00
2019-04-05T05:55:14.309Z,15.27
2019-04-05T05:57:44.142Z,16.00
2019-04-05T06:00:17.114Z,17.10
2019-04-05T06:02:48.371Z,17.57
2019-04-05T06:05:18.526Z,16.43
2019-04-05T06:07:48.251Z,16.43
2019-04-05T06:10:18.140Z,15.97
2019-04-05T06:12:47.829Z,16.90
2019-04-05T06:15:17.697Z,15.77
2019-04-05T06:17:47.433Z,16.77
2019-04-05T06:20:17.628Z,16.10
2019-04-05T06:22:47.672Z,19.67
2019-04-05T06:25:17.763Z,20.10
2019-04-05T06:27:47.503Z,17.93
2019-04-05T06:30:17.296Z,25.27
2019-04-05T06:32:47.094Z,34.80
2019-04-05T06:35:17.518Z,18.13
2019-04-05T06:37:47.282Z,17.40
2019-04-05T06:40:17.125Z,15.83
2019-04-05T06:42:46.819Z,15.73
2019-04-05T06:45:16.620Z,15.40
2019-04-05T06:47:46.393Z,17.37
2019-04-05T06:50:16.205Z,16.67
2019-04-05T06:52:46.005Z,15.47
2019-04-05T06:55:15.907Z,16.30
2019-04-05T06:57:45.622Z,16.13
2019-04-05T07:00:16.336Z,14.10
2019-04-05T07:02:46.088Z,14.93
2019-04-05T07:05:15.871Z,19.43
2019-04-05T07:07:45.549Z,14.50
2019-04-05T07:10:15.481Z,14.70
2019-04-05T07:12:45.228Z,14.63
2019-04-05T07:15:15.177Z,15.40
2019-04-05T07:17:44.931Z,14.63
2019-04-05T07:20:14.726Z,16.57
2019-04-05T07:22:44.364Z,10.27
2019-04-05T07:25:14.221Z,10.77
2019-04-05T07:27:44.056Z,10.93
2019-04-05T07:30:15.559Z,10.90
2019-04-05T07:32:45.252Z,9.80
2019-04-05T07:35:15.104Z,9.77
2019-04-05T07:37:45.084Z,7.17
2019-04-05T07:40:15.579Z,9.70
2019-04-05T07:42:45.388Z,10.17
2019-04-05T07:45:15.719Z,10.47
2019-04-05T07:47:45.414Z,10.50
2019-04-05T07:50:15.828Z,11.20
2019-04-05T07:52:45.529Z,11.90
2019-04-05T07:55:15.738Z,13.50
2019-04-05T07:57:45.741Z,11.87
2019-04-05T08:00:28.643Z,11.30
2019-04-05T08:02:58.284Z,10.77
2019-04-05T08:05:28.182Z,12.00
2019-04-05T08:07:58.563Z,13.00
2019-04-05T08:10:28.969Z,12.07
2019-04-05T08:12:59.897Z,13.60
2019-04-05T08:15:30.698Z,13.77
2019-04-05T08:18:00.562Z,12.83
2019-04-05T08:20:30.302Z,14.10
2019-04-05T08:23:00.017Z,13.87
2019-04-05T08:25:29.793Z,13.97
2019-04-05T08:27:59.612Z,15.80
2019-04-05T08:30:29.354Z,16.50
2019-04-05T08:32:59.059Z,15.93
2019-04-05T08:35:28.727Z,16.20
2019-04-05T08:37:58.548Z,15.57
2019-04-05T08:40:28.283Z,15.80
2019-04-05T08:42:58.160Z,15.83
2019-04-05T08:45:28.133Z,15.60
2019-04-05T08:47:57.836Z,17.40
2019-04-05T08:50:27.611Z,16.07
2019-04-05T08:52:57.520Z,17.23
2019-04-05T08:55:27.233Z,17.87
2019-04-05T08:57:56.992Z,16.87
2019-04-05T09:00:26.976Z,16.80
2019-04-05T09:02:56.780Z,16.83
2019-04-05T09:05:26.469Z,23.90
2019-04-05T09:07:56.199Z,17.00
2019-04-05T09:10:25.913Z,18.67
2019-04-05T09:12:55.613Z,18.57
2019-04-05T09:15:25.636Z,18.50
2019-04-05T09:17:55.469Z,17.13
2019-04-05T09:20:25.245Z,18.67
2019-04-05T09:22:55.097Z,17.57
2019-04-05T09:25:24.836Z,17.33
2019-04-05T09:27:54.809Z,18.07
2019-04-05T09:30:24.653Z,17.93
2019-04-05T09:32:54.348Z,15.77
2019-04-05T09:35:24.041Z,14.10
2019-04-05T09:37:54.085Z,13.53
2019-04-05T09:40:23.865Z,11.67
2019-04-05T09:42:53.566Z,12.17
2019-04-05T09:45:23.292Z,10.87
2019-04-05T09:47:53.171Z,12.87
2019-04-05T09:50:22.890Z,13.90
2019-04-05T09:52:52.702Z,13.73
2019-04-05T09:55:22.376Z,13.63
2019-04-05T09:57:52.068Z,13.03
2019-04-05T10:00:23.536Z,15.00
2019-04-05T10:02:53.423Z,15.43
2019-04-05T10:05:23.243Z,17.03
2019-04-05T10:07:55.111Z,16.93
2019-04-05T10:10:24.865Z,18.30
2019-04-05T10:12:54.824Z,16.83
2019-04-05T10:15:24.742Z,17.53
2019-04-05T10:17:54.543Z,14.43
2019-04-05T10:20:24.494Z,16.07
2019-04-05T10:22:54.412Z,15.27
2019-04-05T10:25:24.401Z,16.37
2019-04-05T10:27:54.210Z,18.47
2019-04-05T10:30:24.558Z,18.00
2019-04-05T10:32:54.504Z,16.43
2019-04-05T10:35:24.377Z,15.77
2019-04-05T10:37:54.303Z,16.63
2019-04-05T10:40:24.292Z,16.77
2019-04-05T10:42:54.218Z,17.10
2019-04-05T10:45:25.200Z,17.10
2019-04-05T10:47:55.097Z,13.73
2019-04-05T10:50:25.069Z,15.80
2019-04-05T10:52:55.043Z,13.47
2019-04-05T10:55:24.853Z,14.57
2019-04-05T10:57:54.659Z,13.90
2019-04-05T11:00:25.464Z,14.03
2019-04-05T11:02:55.250Z,13.03
2019-04-05T11:05:26.071Z,12.13
2019-04-05T11:07:55.750Z,13.40
2019-04-05T11:10:25.408Z,13.47
2019-04-05T11:12:55.285Z,12.53
2019-04-05T11:15:24.984Z,12.10
2019-04-05T11:17:54.950Z,12.20
2019-04-05T11:20:24.800Z,11.20
2019-04-05T11:22:54.664Z,12.50
2019-04-05T11:25:24.814Z,11.83
2019-04-05T11:27:54.551Z,11.97
2019-04-05T11:30:42.575Z,11.93
2019-04-05T11:33:12.555Z,11.27
2019-04-05T11:35:42.962Z,11.40
2019-04-05T11:38:14.131Z,11.00
2019-04-05T11:40:45.306Z,11.20
2019-04-05T11:43:17.069Z,11.97
2019-04-05T11:45:48.590Z,9.67
2019-04-05T11:48:18.618Z,9.33
2019-04-05T11:50:48.303Z,10.37
2019-04-05T11:53:18.061Z,10.40
2019-04-05T11:55:48.138Z,9.70
2019-04-05T11:58:17.793Z,10.23
2019-04-05T12:00:51.910Z,9.40
2019-04-05T12:03:24.829Z,8.83
2019-04-05T12:05:54.563Z,9.50
2019-04-05T12:08:24.381Z,9.57
2019-04-05T12:10:54.426Z,9.50
2019-04-05T12:13:24.176Z,10.33
2019-04-05T12:15:53.999Z,10.03
2019-04-05T12:18:23.720Z,9.73
2019-04-05T12:21:00.062Z,9.47
2019-04-05T12:23:24.857Z,10.53
2019-04-05T12:25:54.889Z,10.90
2019-04-05T12:28:24.617Z,10.77
2019-04-05T12:30:54.569Z,11.90
2019-04-05T12:33:26.249Z,12.97
2019-04-05T12:35:56.661Z,12.30
2019-04-05T12:38:33.905Z,12.10
2019-04-05T12:41:05.223Z,11.63
2019-04-05T12:43:36.818Z,12.10
2019-04-05T12:46:07.350Z,12.73
2019-04-05T12:48:37.015Z,11.87
2019-04-05T12:51:06.926Z,10.90
2019-04-05T12:53:36.656Z,11.50
2019-04-05T12:56:06.906Z,12.97
2019-04-05T12:58:36.631Z,10.90
2019-04-05T13:01:08.386Z,10.50
2019-04-05T13:03:38.032Z,10.67
2019-04-05T13:06:07.734Z,9.60
2019-04-05T13:08:37.457Z,11.40
2019-04-05T13:11:07.377Z,11.37
2019-04-05T13:13:37.139Z,10.80
2019-04-05T13:16:09.838Z,11.37
2019-04-05T13:18:38.755Z,11.23
2019-04-05T13:21:15.098Z,11.53
2019-04-05T13:23:40.429Z,11.47
2019-04-05T13:26:12.346Z,11.50
2019-04-05T13:28:41.893Z,11.47
2019-04-05T13:31:11.686Z,11.90
2019-04-05T13:33:41.621Z,12.93
2019-04-05T13:36:11.514Z,12.07
2019-04-05T13:38:53.998Z,13.17
2019-04-05T13:41:12.942Z,13.80
2019-04-05T13:43:42.628Z,12.43
2019-04-05T13:46:21.814Z,12.93
2019-04-05T13:48:43.780Z,12.93
2019-04-05T13:51:13.489Z,12.33
2019-04-05T13:53:43.205Z,12.53
2019-04-05T13:56:12.995Z,14.13
2019-04-05T13:58:46.004Z,14.10
2019-04-05T14:01:14.222Z,13.57
2019-04-05T14:03:44.009Z,13.83
2019-04-05T14:06:13.663Z,13.53
2019-04-05T14:08:43.344Z,14.63
2019-04-05T14:11:13.241Z,13.70
2019-04-05T14:13:43.164Z,15.67
2019-04-05T14:16:13.137Z,14.97
2019-04-05T14:18:49.444Z,14.93
2019-04-05T14:21:14.534Z,15.70
2019-04-05T14:23:44.299Z,15.43
2019-04-05T14:26:14.039Z,16.00
2019-04-05T14:28:43.722Z,16.80
2019-04-05T14:31:13.402Z,16.50
2019-04-05T14:33:43.172Z,17.07
2019-04-05T14:36:13.029Z,17.20
2019-04-05T14:38:42.708Z,17.50
2019-04-05T14:41:12.549Z,18.07
2019-04-05T14:43:44.535Z,18.93
2019-04-05T14:46:14.006Z,18.03
2019-04-05T14:48:43.790Z,17.97
2019-04-05T14:51:13.544Z,18.27
2019-04-05T14:53:43.352Z,18.00
2019-04-05T14:56:13.128Z,16.10
2019-04-05T14:58:42.824Z,14.50
2019-04-05T15:01:12.683Z,13.67
2019-04-05T15:03:42.365Z,13.33
2019-04-05T15:06:12.200Z,20.70
2019-04-05T15:08:42.100Z,18.87
2019-04-05T15:11:11.880Z,17.87
2019-04-05T15:13:41.618Z,17.23
2019-04-05T15:16:11.645Z,15.93
2019-04-05T15:18:43.045Z,16.03
2019-04-05T15:21:12.857Z,14.13
2019-04-05T15:23:45.435Z,15.20
2019-04-05T15:26:14.134Z,15.77
2019-04-05T15:28:43.870Z,16.10
2019-04-05T15:31:13.691Z,14.03
2019-04-05T15:33:43.488Z,12.60
2019-04-05T15:36:13.145Z,14.20
2019-04-05T15:38:42.907Z,12.63
2019-04-05T15:41:12.587Z,12.67
2019-04-05T15:43:42.493Z,12.43
2019-04-05T15:46:12.433Z,12.83
2019-04-05T15:48:42.189Z,12.93
2019-04-05T15:51:12.015Z,13.50
2019-04-05T15:53:41.851Z,12.97
2019-04-05T15:56:11.590Z,13.00
2019-04-05T15:58:41.321Z,15.67
2019-04-05T16:01:11.311Z,17.83
2019-04-05T16:03:41.270Z,19.07
2019-04-05T16:06:11.112Z,18.97
2019-04-05T16:08:40.891Z,18.87
2019-04-05T16:11:10.816Z,20.10
2019-04-05T16:13:40.663Z,20.40
2019-04-05T16:16:10.911Z,18.73
2019-04-05T16:18:40.576Z,21.00
2019-04-05T16:21:10.449Z,19.57
2019-04-05T16:23:40.163Z,19.50
2019-04-05T16:26:09.922Z,19.20
2019-04-05T16:28:41.091Z,19.37
2019-04-05T16:31:11.009Z,20.63
2019-04-05T16:33:40.712Z,19.03
2019-04-05T16:36:10.381Z,19.13
2019-04-05T16:38:40.220Z,19.90
2019-04-05T16:41:10.036Z,18.17
2019-04-05T16:43:39.701Z,17.87
2019-04-05T16:46:09.335Z,18.93
2019-04-05T16:48:39.116Z,19.43
2019-04-05T16:51:08.918Z,18.80
2019-04-05T16:53:40.334Z,17.77
2019-04-05T16:56:10.394Z,18.33
2019-04-05T16:58:40.239Z,16.20
2019-04-05T17:01:10.297Z,16.83
2019-04-05T17:03:40.033Z,16.60
2019-04-05T17:06:09.728Z,14.77
2019-04-05T17:08:39.544Z,13.73
2019-04-05T17:11:09.286Z,14.17
2019-04-05T17:13:38.991Z,13.83
2019-04-05T17:16:08.701Z,12.63
2019-04-05T17:18:38.448Z,13.10
2019-04-05T17:21:08.118Z,12.27
2019-04-05T17:23:37.847Z,13.43
2019-04-05T17:26:07.591Z,12.87
2019-04-05T17:28:37.246Z,13.80
2019-04-05T17:31:07.080Z,12.77
2019-04-05T17:33:36.824Z,13.03
2019-04-05T17:36:06.555Z,13.83
2019-04-05T17:38:36.445Z,13.23
2019-04-05T17:41:06.600Z,13.63
2019-04-05T17:43:36.405Z,14.20
2019-04-05T17:46:06.329Z,14.30
2019-04-05T17:48:36.079Z,13.00
2019-04-05T17:51:05.881Z,13.90
2019-04-05T17:53:35.643Z,13.63
2019-04-05T17:56:05.653Z,12.60
2019-04-05T17:58:37.298Z,12.63
2019-04-05T18:01:07.362Z,12.70
2019-04-05T18:03:37.065Z,14.37
2019-04-05T18:06:07.047Z,13.17
2019-04-05T18:08:36.714Z,12.83
2019-04-05T18:11:06.613Z,14.60
2019-04-05T18:13:36.810Z,15.60
2019-04-05T18:16:06.609Z,16.43
2019-04-05T18:18:36.367Z,17.03
2019-04-05T18:21:07.539Z,17.03
2019-04-05T18:23:37.200Z,17.90
2019-04-05T18:26:07.012Z,18.37
2019-04-05T18:28:37.887Z,17.90
2019-04-05T18:31:07.529Z,19.43
2019-04-05T18:33:38.235Z,18.40
2019-04-05T18:36:07.892Z,19.43
2019-04-05T18:38:37.706Z,20.20
2019-04-05T18:41:07.620Z,19.70
2019-04-05T18:43:37.275Z,20.80
2019-04-05T18:46:07.104Z,22.53
2019-04-05T18:48:36.804Z,22.03
2019-04-05T18:51:06.540Z,23.20
2019-04-05T18:53:38.013Z,24.63
2019-04-05T18:56:07.876Z,24.60
2019-04-05T18:58:37.586Z,25.83
2019-04-05T19:01:07.433Z,24.97
2019-04-05T19:03:37.168Z,25.50
2019-04-05T19:06:07.320Z,24.50
2019-04-05T19:08:39.868Z,24.37
2019-04-05T19:11:08.582Z,25.30
2019-04-05T19:13:38.393Z,24.13
2019-04-05T19:16:08.165Z,24.80
2019-04-05T19:18:38.105Z,24.80
2019-04-05T19:21:08.001Z,23.47
2019-04-05T19:23:49.879Z,24.27
2019-04-05T19:26:09.178Z,23.27
2019-04-05T19:28:38.915Z,22.90
2019-04-05T19:48:48.670Z,23.70
2019-04-05T19:51:18.463Z,23.33
2019-04-05T19:53:49.466Z,23.30
2019-04-05T19:56:19.172Z,23.10
2019-04-05T19:58:49.147Z,23.63
2019-04-05T20:01:18.877Z,21.80
2019-04-05T20:03:48.655Z,23.17
2019-04-05T20:06:18.314Z,23.67
2019-04-05T20:08:48.009Z,23.70
2019-04-05T20:11:18.087Z,24.03
2019-04-05T20:13:47.834Z,24.43
2019-04-05T20:16:17.597Z,23.87
2019-04-05T20:18:47.239Z,23.43
2019-04-05T20:21:17.057Z,23.47
2019-04-05T20:23:47.805Z,24.83
2019-04-05T20:26:17.774Z,23.23
2019-04-05T20:28:47.463Z,24.50
2019-04-05T20:31:17.239Z,23.87
2019-04-05T20:33:46.960Z,24.77
2019-04-05T20:36:16.644Z,25.90
2019-04-05T20:38:46.369Z,24.10
2019-04-05T20:41:16.164Z,25.10
2019-04-05T20:43:45.951Z,24.90
2019-04-05T20:46:15.972Z,24.40
2019-04-05T20:48:45.625Z,25.00
2019-04-05T20:51:15.323Z,25.60
2019-04-05T20:53:44.993Z,25.20
2019-04-05T20:56:14.847Z,26.77
2019-04-05T20:58:44.525Z,25.70
2019-04-05T21:01:14.202Z,26.10
2019-04-05T21:03:43.991Z,25.30
2019-04-05T21:06:13.868Z,25.53
2019-04-05T21:08:43.531Z,26.60
2019-04-05T21:11:13.285Z,27.07
2019-04-05T21:13:43.097Z,26.03
2019-04-05T21:16:12.832Z,27.60
2019-04-05T21:18:42.501Z,27.97
2019-04-05T21:21:12.323Z,26.43
2019-04-05T21:23:42.216Z,25.60
2019-04-05T21:26:11.949Z,27.03
2019-04-05T21:28:41.781Z,26.77
2019-04-05T21:31:11.513Z,25.83
2019-04-05T21:33:41.252Z,26.30
2019-04-05T21:36:10.961Z,27.07
2019-04-05T21:38:40.681Z,25.13
2019-04-05T21:41:10.393Z,26.23
2019-04-05T21:43:40.087Z,27.27
2019-04-05T21:46:09.783Z,26.37
2019-04-05T21:48:39.473Z,26.17
2019-04-05T21:51:09.208Z,26.70
2019-04-05T21:53:38.982Z,27.10
2019-04-05T21:56:09.048Z,26.33
2019-04-05T21:58:38.756Z,27.50
2019-04-05T22:01:09.948Z,27.17
2019-04-05T22:03:39.699Z,26.37
2019-04-05T22:06:09.563Z,28.60
2019-04-05T22:08:39.390Z,26.60
2019-04-05T22:11:09.318Z,28.87
2019-04-05T22:13:39.319Z,27.60
2019-04-05T22:16:09.213Z,29.20
2019-04-05T22:18:38.928Z,27.13
2019-04-05T22:21:08.815Z,28.57
2019-04-05T22:23:38.835Z,28.60
2019-04-05T22:26:09.437Z,28.50
2019-04-05T22:28:39.264Z,28.67
2019-04-05T22:31:09.199Z,26.97
2019-04-05T22:33:38.890Z,28.20
2019-04-05T22:36:08.711Z,27.23
2019-04-05T22:38:38.530Z,29.60
2019-04-05T22:41:08.341Z,27.43
2019-04-05T22:43:38.019Z,27.30
2019-04-05T22:46:07.897Z,28.40
2019-04-05T22:48:37.653Z,29.00
2019-04-05T22:51:07.376Z,29.43
2019-04-05T22:53:37.080Z,28.83
2019-04-05T22:56:06.982Z,28.37
2019-04-05T22:58:36.817Z,28.30
2019-04-05T23:01:06.582Z,29.10
2019-04-05T23:03:36.355Z,27.63
2019-04-05T23:06:06.416Z,29.97
2019-04-05T23:08:36.507Z,29.20
2019-04-05T23:11:06.307Z,28.50
2019-04-05T23:13:36.445Z,29.73
2019-04-05T23:16:06.561Z,27.93
2019-04-05T23:18:36.474Z,28.53
2019-04-05T23:21:06.365Z,28.57
2019-04-05T23:23:36.184Z,29.93
2019-04-05T23:26:05.904Z,27.90
2019-04-05T23:28:35.879Z,30.23
2019-04-05T23:31:05.838Z,31.50
2019-04-05T23:33:35.572Z,30.50
2019-04-05T23:36:05.625Z,30.33
2019-04-05T23:38:35.363Z,30.57
2019-04-05T23:41:05.366Z,29.60
2019-04-05T23:43:35.153Z,32.03
2019-04-05T23:46:04.916Z,31.73
2019-04-05T23:48:34.728Z,32.17
2019-04-05T23:51:04.508Z,32.23
2019-04-05T23:53:34.349Z,31.03
2019-04-05T23:56:04.148Z,32.40
2019-04-05T23:58:33.862Z,30.97
